createdAt,value
2023-01-01T00:00:21.267Z,997.96
2023-01-01T00:01:21.225Z,997.96
2023-01-01T00:02:21.309Z,998.01
2023-01-01T00:03:21.221Z,998.07
2023-01-01T00:04:21.228Z,998.07
2023-01-01T00:05:21.187Z,998.01
2023-01-01T00:06:21.174Z,998.05
2023-01-01T00:07:21.156Z,998.07
2023-01-01T00:08:21.172Z,997.98
2023-01-01T00:09:21.132Z,998.04
2023-01-01T00:10:21.167Z,998.17
2023-01-01T00:11:21.116Z,997.93
2023-01-01T00:12:21.132Z,997.86
2023-01-01T00:13:21.103Z,997.98
2023-01-01T00:14:21.097Z,998.03
2023-01-01T00:15:21.075Z,997.90
2023-01-01T00:16:21.128Z,997.85
2023-01-01T00:17:21.053Z,997.88
2023-01-01T00:18:21.041Z,997.93
2023-01-01T00:19:21.067Z,997.86
2023-01-01T00:20:21.036Z,997.87
2023-01-01T00:21:21.003Z,997.89
2023-01-01T00:22:53.439Z,997.96
2023-01-01T00:23:21.985Z,997.87
2023-01-01T00:24:20.993Z,997.88
2023-01-01T00:25:20.963Z,997.88
2023-01-01T00:26:20.951Z,997.90
2023-01-01T00:27:20.944Z,997.87
2023-01-01T00:28:20.953Z,997.95
2023-01-01T00:29:20.946Z,997.90
2023-01-01T00:30:20.931Z,997.84
2023-01-01T00:31:20.959Z,997.79
2023-01-01T00:32:23.071Z,997.85
2023-01-01T00:33:20.901Z,997.85
2023-01-01T00:34:20.887Z,997.88
2023-01-01T00:35:20.856Z,997.86
2023-01-01T00:36:20.865Z,997.93
2023-01-01T00:37:20.855Z,997.87
2023-01-01T00:38:20.823Z,997.96
2023-01-01T00:39:20.806Z,997.80
2023-01-01T00:40:21.592Z,997.89
2023-01-01T00:41:20.807Z,997.93
2023-01-01T00:42:20.789Z,997.94
2023-01-01T00:43:20.766Z,997.96
2023-01-01T00:44:20.770Z,998.02
2023-01-01T00:45:22.309Z,997.92
2023-01-01T00:46:20.801Z,998.01
2023-01-01T00:47:20.734Z,998.05
2023-01-01T00:48:20.729Z,998.01
2023-01-01T00:49:20.702Z,998.07
2023-01-01T00:50:20.706Z,998.07
2023-01-01T00:51:20.687Z,998.11
2023-01-01T00:52:20.674Z,998.18
2023-01-01T00:53:20.676Z,998.23
2023-01-01T00:54:20.656Z,998.13
2023-01-01T00:55:20.651Z,998.12
2023-01-01T00:56:20.631Z,998.12
2023-01-01T00:57:20.658Z,998.09
2023-01-01T00:58:20.631Z,998.24
2023-01-01T00:59:23.902Z,998.14
2023-01-01T01:00:21.591Z,998.12
2023-01-01T01:01:20.657Z,998.11
2023-01-01T01:02:20.752Z,998.13
2023-01-01T01:03:20.643Z,998.06
2023-01-01T01:04:20.532Z,997.97
2023-01-01T01:05:20.535Z,998.04
2023-01-01T01:06:20.516Z,998.00
2023-01-01T01:07:20.517Z,997.95
2023-01-01T01:08:23.019Z,998.01
2023-01-01T01:09:21.509Z,998.17
2023-01-01T01:10:20.466Z,998.00
2023-01-01T01:11:20.467Z,997.93
2023-01-01T01:12:20.455Z,997.82
2023-01-01T01:13:20.440Z,997.93
2023-01-01T01:14:20.436Z,997.99
2023-01-01T01:15:20.461Z,997.86
2023-01-01T01:16:20.499Z,997.84
2023-01-01T01:17:20.397Z,997.81
2023-01-01T01:18:20.382Z,997.81
2023-01-01T01:19:20.388Z,997.86
2023-01-01T01:20:20.380Z,997.95
2023-01-01T01:21:20.394Z,997.88
2023-01-01T01:22:25.983Z,997.78
2023-01-01T01:23:21.402Z,997.81
2023-01-01T01:24:20.338Z,997.91
2023-01-01T01:25:20.309Z,997.81
2023-01-01T01:26:20.334Z,997.94
2023-01-01T01:27:20.304Z,997.89
2023-01-01T01:28:20.310Z,997.92
2023-01-01T01:29:20.275Z,998.03
2023-01-01T01:30:20.262Z,997.90
2023-01-01T01:31:20.317Z,998.00
2023-01-01T01:32:20.252Z,998.04
2023-01-01T01:33:20.235Z,998.16
2023-01-01T01:34:27.151Z,998.03
2023-01-01T01:35:21.200Z,998.02
2023-01-01T01:36:20.182Z,998.11
2023-01-01T01:37:20.170Z,998.21
2023-01-01T01:38:20.210Z,998.19
2023-01-01T01:39:20.248Z,998.26
2023-01-01T01:40:20.145Z,998.28
2023-01-01T01:41:27.948Z,998.23
2023-01-01T01:42:21.147Z,998.31
2023-01-01T01:43:20.123Z,998.40
2023-01-01T01:44:20.126Z,998.36
2023-01-01T01:45:20.094Z,998.44
2023-01-01T01:46:20.151Z,998.37
2023-01-01T01:47:20.100Z,998.33
2023-01-01T01:48:20.068Z,998.34
2023-01-01T01:49:20.050Z,998.39
2023-01-01T01:50:20.116Z,998.40
2023-01-01T01:51:20.023Z,998.39
2023-01-01T01:52:20.014Z,998.47
2023-01-01T01:53:20.010Z,998.55
2023-01-01T01:54:19.990Z,998.47
2023-01-01T01:55:20.005Z,998.47
2023-01-01T01:56:19.990Z,998.52
2023-01-01T01:57:19.958Z,998.58
2023-01-01T01:58:19.953Z,998.56
2023-01-01T01:59:19.970Z,998.55
2023-01-01T02:00:19.930Z,998.57
2023-01-01T02:01:20.017Z,998.56
2023-01-01T02:02:20.115Z,998.56
2023-01-01T02:03:19.922Z,998.57
2023-01-01T02:04:19.928Z,998.57
2023-01-01T02:05:19.873Z,998.56
2023-01-01T02:06:19.879Z,998.55
2023-01-01T02:07:19.851Z,998.69
2023-01-01T02:08:19.859Z,998.48
2023-01-01T02:09:19.845Z,998.58
2023-01-01T02:10:19.812Z,998.57
2023-01-01T02:11:22.078Z,998.52
2023-01-01T02:12:19.810Z,998.62
2023-01-01T02:13:19.786Z,998.67
2023-01-01T02:14:19.800Z,998.63
2023-01-01T02:15:19.763Z,998.60
2023-01-01T02:16:19.766Z,998.66
2023-01-01T02:17:19.777Z,998.68
2023-01-01T02:18:19.731Z,998.58
2023-01-01T02:19:19.745Z,998.59
2023-01-01T02:20:19.735Z,998.67
2023-01-01T02:21:19.697Z,998.59
2023-01-01T02:22:19.686Z,998.62
2023-01-01T02:23:19.703Z,998.58
2023-01-01T02:24:19.668Z,998.57
2023-01-01T02:25:19.657Z,998.59
2023-01-01T02:26:19.664Z,998.60
2023-01-01T02:27:19.647Z,998.66
2023-01-01T02:28:19.619Z,998.64
2023-01-01T02:29:19.610Z,998.69
2023-01-01T02:30:19.600Z,998.71
2023-01-01T02:31:23.111Z,998.67
2023-01-01T02:32:19.619Z,998.63
2023-01-01T02:33:19.569Z,998.66
2023-01-01T02:34:19.573Z,998.64
2023-01-01T02:35:19.543Z,998.60
2023-01-01T02:36:19.559Z,998.58
2023-01-01T02:37:19.547Z,998.66
2023-01-01T02:38:19.538Z,998.64
2023-01-01T02:39:19.518Z,998.67
2023-01-01T02:40:19.487Z,998.70
2023-01-01T02:41:19.497Z,998.73
2023-01-01T02:42:19.485Z,998.68
2023-01-01T02:43:24.544Z,998.78
2023-01-01T02:44:20.465Z,998.76
2023-01-01T02:45:19.450Z,998.74
2023-01-01T02:46:49.703Z,998.76
2023-01-01T02:47:49.689Z,998.83
2023-01-01T02:48:49.711Z,998.75
2023-01-01T02:49:49.689Z,998.79
2023-01-01T02:50:49.657Z,998.77
2023-01-01T02:51:49.679Z,998.84
2023-01-01T02:52:49.662Z,998.82
2023-01-01T02:53:49.637Z,998.81
2023-01-01T02:54:49.622Z,998.79
2023-01-01T02:55:49.643Z,998.87
2023-01-01T02:56:49.652Z,998.89
2023-01-01T02:57:49.588Z,998.81
2023-01-01T02:58:49.570Z,998.78
2023-01-01T02:59:49.560Z,998.81
2023-01-01T03:00:49.547Z,998.80
2023-01-01T03:01:49.709Z,998.81
2023-01-01T03:02:51.331Z,998.84
2023-01-01T03:03:49.521Z,998.81
2023-01-01T03:04:49.500Z,998.78
2023-01-01T03:05:49.494Z,998.76
2023-01-01T03:06:49.499Z,998.78
2023-01-01T03:07:49.505Z,998.78
2023-01-01T03:08:49.515Z,998.85
2023-01-01T03:09:49.456Z,998.82
2023-01-01T03:10:49.444Z,998.78
2023-01-01T03:11:49.432Z,998.79
2023-01-01T03:12:49.433Z,998.86
2023-01-01T03:13:49.440Z,998.88
2023-01-01T03:14:49.414Z,998.83
2023-01-01T03:15:49.446Z,998.75
2023-01-01T03:16:49.374Z,998.83
2023-01-01T03:17:49.358Z,998.78
2023-01-01T03:18:49.359Z,998.77
2023-01-01T03:19:49.362Z,998.83
2023-01-01T03:20:49.365Z,998.82
2023-01-01T03:21:49.309Z,998.81
2023-01-01T03:22:49.317Z,998.80
2023-01-01T03:23:50.185Z,998.78
2023-01-01T03:24:49.273Z,998.85
2023-01-01T03:25:49.283Z,998.86
2023-01-01T03:26:49.304Z,998.78
2023-01-01T03:27:49.246Z,998.83
2023-01-01T03:28:49.256Z,998.74
2023-01-01T03:29:49.220Z,998.82
2023-01-01T03:30:49.302Z,998.83
2023-01-01T03:31:49.214Z,998.78
2023-01-01T03:32:49.245Z,998.79
2023-01-01T03:33:49.191Z,998.83
2023-01-01T03:34:49.194Z,998.72
2023-01-01T03:35:49.227Z,998.87
2023-01-01T03:36:49.149Z,998.90
2023-01-01T03:37:49.144Z,998.90
2023-01-01T03:38:49.172Z,998.93
2023-01-01T03:39:49.131Z,998.93
2023-01-01T03:40:49.102Z,998.90
2023-01-01T03:41:49.093Z,998.98
2023-01-01T03:42:49.084Z,998.98
2023-01-01T03:43:49.086Z,999.03
2023-01-01T03:44:49.082Z,999.02
2023-01-01T03:45:49.050Z,999.04
2023-01-01T03:46:49.088Z,999.06
2023-01-01T03:47:49.020Z,999.00
2023-01-01T03:48:49.006Z,998.93
2023-01-01T03:49:49.014Z,998.90
2023-01-01T03:50:49.012Z,998.93
2023-01-01T03:51:48.995Z,998.93
2023-01-01T03:52:48.964Z,998.93
2023-01-01T03:53:48.958Z,998.99
2023-01-01T03:54:52.383Z,998.90
2023-01-01T03:55:49.978Z,999.01
2023-01-01T03:56:48.964Z,998.98
2023-01-01T03:57:48.930Z,999.00
2023-01-01T03:58:48.899Z,999.03
2023-01-01T03:59:48.891Z,999.03
2023-01-01T04:00:48.877Z,998.97
2023-01-01T04:01:49.001Z,999.00
2023-01-01T04:02:49.005Z,998.98
2023-01-01T04:03:48.851Z,999.03
2023-01-01T04:04:48.831Z,999.04
2023-01-01T04:05:48.839Z,999.06
2023-01-01T04:06:48.830Z,999.06
2023-01-01T04:08:19.141Z,999.02
2023-01-01T04:09:19.073Z,999.08
2023-01-01T04:10:19.114Z,999.01
2023-01-01T04:11:19.082Z,999.00
2023-01-01T04:12:19.048Z,998.95
2023-01-01T04:13:19.064Z,998.99
2023-01-01T04:14:19.020Z,999.00
2023-01-01T04:15:19.008Z,998.89
2023-01-01T04:16:19.014Z,998.92
2023-01-01T04:17:18.994Z,998.79
2023-01-01T04:18:19.033Z,998.92
2023-01-01T04:19:18.962Z,998.92
2023-01-01T04:20:18.959Z,998.96
2023-01-01T04:21:18.953Z,998.89
2023-01-01T04:22:18.940Z,998.84
2023-01-01T04:23:18.946Z,998.86
2023-01-01T04:24:18.952Z,998.77
2023-01-01T04:25:18.887Z,998.80
2023-01-01T04:26:18.882Z,998.79
2023-01-01T04:27:18.904Z,998.77
2023-01-01T04:28:18.869Z,998.83
2023-01-01T04:29:18.856Z,998.78
2023-01-01T04:30:18.873Z,998.79
2023-01-01T04:31:18.840Z,998.83
2023-01-01T04:32:18.825Z,998.89
2023-01-01T04:33:18.809Z,998.86
2023-01-01T04:34:18.835Z,998.91
2023-01-01T04:35:18.783Z,998.98
2023-01-01T04:36:18.807Z,998.96
2023-01-01T04:37:18.763Z,998.95
2023-01-01T04:38:18.760Z,999.01
2023-01-01T04:39:18.774Z,998.96
2023-01-01T04:40:18.742Z,998.92
2023-01-01T04:41:18.713Z,998.94
2023-01-01T04:42:18.723Z,998.95
2023-01-01T04:43:18.741Z,999.03
2023-01-01T04:44:18.717Z,999.03
2023-01-01T04:45:18.692Z,999.04
2023-01-01T04:46:18.667Z,999.03
2023-01-01T04:47:18.648Z,999.08
2023-01-01T04:48:18.687Z,999.04
2023-01-01T04:49:18.642Z,999.10
2023-01-01T04:50:18.634Z,999.07
2023-01-01T04:51:18.648Z,999.18
2023-01-01T04:52:18.612Z,999.12
2023-01-01T04:53:18.579Z,999.10
2023-01-01T04:54:18.612Z,999.15
2023-01-01T04:55:18.572Z,999.11
2023-01-01T04:56:18.567Z,999.15
2023-01-01T04:57:18.542Z,999.10
2023-01-01T04:58:18.639Z,999.17
2023-01-01T04:59:18.533Z,999.14
2023-01-01T05:00:18.532Z,999.15
2023-01-01T05:01:18.615Z,999.14
2023-01-01T05:02:18.599Z,999.16
2023-01-01T05:03:18.475Z,999.23
2023-01-01T05:04:18.465Z,999.17
2023-01-01T05:05:18.482Z,999.22
2023-01-01T05:06:18.460Z,999.27
2023-01-01T05:07:18.425Z,999.29
2023-01-01T05:08:18.410Z,999.23
2023-01-01T05:09:18.400Z,999.32
2023-01-01T05:10:18.406Z,999.31
2023-01-01T05:11:18.399Z,999.38
2023-01-01T05:12:18.389Z,999.37
2023-01-01T05:13:18.351Z,999.41
2023-01-01T05:14:18.372Z,999.34
2023-01-01T05:15:18.379Z,999.41
2023-01-01T05:16:18.431Z,999.28
2023-01-01T05:17:18.327Z,999.25
2023-01-01T05:18:18.325Z,999.23
2023-01-01T05:19:18.286Z,999.23
2023-01-01T05:20:18.284Z,999.24
2023-01-01T05:21:18.269Z,999.23
2023-01-01T05:22:18.276Z,999.27
2023-01-01T05:23:18.243Z,999.30
2023-01-01T05:24:18.263Z,999.28
2023-01-01T05:25:18.215Z,999.29
2023-01-01T05:26:18.212Z,999.30
2023-01-01T05:27:18.194Z,999.29
2023-01-01T05:28:18.196Z,999.32
2023-01-01T05:29:18.195Z,999.29
2023-01-01T05:30:18.215Z,999.35
2023-01-01T05:31:18.282Z,999.38
2023-01-01T05:32:18.145Z,999.38
2023-01-01T05:33:18.136Z,999.49
2023-01-01T05:34:18.145Z,999.50
2023-01-01T05:35:23.025Z,999.50
2023-01-01T05:36:19.155Z,999.52
2023-01-01T05:37:18.098Z,999.64
2023-01-01T05:38:18.074Z,999.62
2023-01-01T05:39:18.081Z,999.65
2023-01-01T05:40:18.055Z,999.66
2023-01-01T05:41:18.052Z,999.67
2023-01-01T05:42:18.047Z,999.65
2023-01-01T05:43:18.017Z,999.69
2023-01-01T05:44:18.014Z,999.71
2023-01-01T05:45:18.022Z,999.68
2023-01-01T05:46:18.015Z,999.63
2023-01-01T05:47:17.989Z,999.60
2023-01-01T05:48:18.039Z,999.56
2023-01-01T05:49:17.973Z,999.54
2023-01-01T05:50:17.954Z,999.57
2023-01-01T05:51:17.942Z,999.59
2023-01-01T05:52:21.601Z,999.65
2023-01-01T05:53:18.902Z,999.59
2023-01-01T05:54:18.984Z,999.54
2023-01-01T05:55:17.908Z,999.54
2023-01-01T05:56:17.879Z,999.61
2023-01-01T05:57:17.875Z,999.63
2023-01-01T05:58:17.868Z,999.68
2023-01-01T05:59:17.890Z,999.70
2023-01-01T06:00:17.860Z,999.75
2023-01-01T06:01:17.934Z,999.72
2023-01-01T06:02:17.905Z,999.72
2023-01-01T06:03:17.833Z,999.73
2023-01-01T06:04:17.819Z,999.69
2023-01-01T06:05:17.792Z,999.78
2023-01-01T06:06:17.811Z,999.79
2023-01-01T06:07:17.791Z,999.86
2023-01-01T06:08:17.749Z,999.88
2023-01-01T06:09:17.738Z,999.99
2023-01-01T06:10:17.721Z,999.96
2023-01-01T06:11:17.765Z,999.92
2023-01-01T06:12:17.705Z,999.96
2023-01-01T06:13:17.691Z,1000.01
2023-01-01T06:14:17.676Z,999.91
2023-01-01T06:15:17.684Z,1000.02
2023-01-01T06:16:17.716Z,999.97
2023-01-01T06:17:17.677Z,1000.02
2023-01-01T06:18:17.626Z,1000.01
2023-01-01T06:19:17.627Z,999.94
2023-01-01T06:20:17.650Z,999.95
2023-01-01T06:21:17.606Z,999.93
2023-01-01T06:22:17.598Z,1000.01
2023-01-01T06:23:17.610Z,999.99
2023-01-01T06:24:17.595Z,1000.02
2023-01-01T06:25:17.547Z,1000.07
2023-01-01T06:26:17.569Z,1000.01
2023-01-01T06:27:17.525Z,1000.06
2023-01-01T06:28:17.528Z,1000.05
2023-01-01T06:29:17.547Z,999.97
2023-01-01T06:30:17.515Z,999.95
2023-01-01T06:31:17.544Z,999.93
2023-01-01T06:32:17.495Z,1000.05
2023-01-01T06:33:17.462Z,999.95
2023-01-01T06:34:17.469Z,999.96
2023-01-01T06:35:17.533Z,999.96
2023-01-01T06:36:17.466Z,999.95
2023-01-01T06:37:17.415Z,1000.02
2023-01-01T06:38:17.400Z,999.97
2023-01-01T06:39:17.400Z,1000.02
2023-01-01T06:40:17.402Z,1000.04
2023-01-01T06:41:17.409Z,1000.10
2023-01-01T06:42:17.385Z,1000.14
2023-01-01T06:43:17.355Z,1000.18
2023-01-01T06:44:17.340Z,1000.24
2023-01-01T06:45:17.340Z,1000.20
2023-01-01T06:46:17.351Z,1000.25
2023-01-01T06:47:17.350Z,1000.24
2023-01-01T06:48:17.291Z,1000.30
2023-01-01T06:49:17.304Z,1000.34
2023-01-01T06:50:17.270Z,1000.35
2023-01-01T06:51:17.306Z,1000.32
2023-01-01T06:52:17.241Z,1000.34
2023-01-01T06:53:17.281Z,1000.34
2023-01-01T06:54:17.229Z,1000.31
2023-01-01T06:55:17.209Z,1000.32
2023-01-01T06:56:17.237Z,1000.33
2023-01-01T06:57:17.182Z,1000.35
2023-01-01T06:58:17.204Z,1000.34
2023-01-01T06:59:17.193Z,1000.37
2023-01-01T07:00:17.156Z,1000.38
2023-01-01T07:01:17.404Z,1000.42
2023-01-01T07:02:17.268Z,1000.38
2023-01-01T07:03:17.253Z,1000.38
2023-01-01T07:04:17.118Z,1000.33
2023-01-01T07:05:17.148Z,1000.34
2023-01-01T07:06:17.100Z,1000.32
2023-01-01T07:07:17.153Z,1000.26
2023-01-01T07:08:17.083Z,1000.31
2023-01-01T07:09:17.062Z,1000.27
2023-01-01T07:10:17.058Z,1000.24
2023-01-01T07:11:17.065Z,1000.27
2023-01-01T07:12:17.036Z,1000.28
2023-01-01T07:13:17.003Z,1000.16
2023-01-01T07:14:16.999Z,1000.20
2023-01-01T07:15:16.982Z,1000.24
2023-01-01T07:16:17.034Z,1000.30
2023-01-01T07:17:16.987Z,1000.36
2023-01-01T07:18:16.955Z,1000.37
2023-01-01T07:19:16.938Z,1000.42
2023-01-01T07:20:16.941Z,1000.46
2023-01-01T07:21:16.932Z,1000.41
2023-01-01T07:22:16.926Z,1000.43
2023-01-01T07:23:16.978Z,1000.42
2023-01-01T07:24:16.886Z,1000.43
2023-01-01T07:25:16.872Z,1000.46
2023-01-01T07:26:16.859Z,1000.50
2023-01-01T07:27:16.878Z,1000.53
2023-01-01T07:28:16.847Z,1000.62
2023-01-01T07:29:16.872Z,1000.68
2023-01-01T07:30:16.865Z,1000.67
2023-01-01T07:31:16.866Z,1000.70
2023-01-01T07:32:16.831Z,1000.80
2023-01-01T07:33:16.789Z,1000.80
2023-01-01T07:34:16.776Z,1000.68
2023-01-01T07:35:16.795Z,1000.73
2023-01-01T07:36:16.781Z,1000.73
2023-01-01T07:37:16.761Z,1000.76
2023-01-01T07:38:16.775Z,1000.78
2023-01-01T07:39:16.743Z,1000.81
2023-01-01T07:40:16.716Z,1000.84
2023-01-01T07:41:16.727Z,1000.85
2023-01-01T07:42:16.696Z,1000.89
2023-01-01T07:43:16.694Z,1000.86
2023-01-01T07:44:16.673Z,1000.90
2023-01-01T07:45:16.665Z,1000.93
2023-01-01T07:46:16.710Z,1000.93
2023-01-01T07:47:16.635Z,1000.91
2023-01-01T07:48:16.650Z,1000.95
2023-01-01T07:49:16.625Z,1000.98
2023-01-01T07:50:16.626Z,1000.85
2023-01-01T07:51:16.595Z,1000.97
2023-01-01T07:52:16.623Z,1000.94
2023-01-01T07:53:16.575Z,1000.95
2023-01-01T07:54:16.579Z,1001.00
2023-01-01T07:55:16.565Z,1001.01
2023-01-01T07:56:16.540Z,1001.01
2023-01-01T07:57:16.524Z,1001.07
2023-01-01T07:58:16.554Z,1001.03
2023-01-01T07:59:20.350Z,1001.08
2023-01-01T08:00:16.516Z,1001.08
2023-01-01T08:01:16.576Z,1001.06
2023-01-01T08:02:16.676Z,1001.14
2023-01-01T08:03:16.528Z,1001.17
2023-01-01T08:04:16.456Z,1001.10
2023-01-01T08:05:19.960Z,1001.14
2023-01-01T08:06:17.428Z,1001.21
2023-01-01T08:07:16.410Z,1001.14
2023-01-01T08:08:16.404Z,1001.22
2023-01-01T08:09:16.405Z,1001.28
2023-01-01T08:10:16.483Z,1001.34
2023-01-01T08:11:16.393Z,1001.29
2023-01-01T08:12:16.361Z,1001.34
2023-01-01T08:13:16.345Z,1001.29
2023-01-01T08:14:16.340Z,1001.33
2023-01-01T08:15:16.320Z,1001.31
2023-01-01T08:16:16.482Z,1001.25
2023-01-01T08:17:16.296Z,1001.26
2023-01-01T08:18:16.292Z,1001.21
2023-01-01T08:19:16.289Z,1001.28
2023-01-01T08:20:16.280Z,1001.20
2023-01-01T08:21:16.257Z,1001.30
2023-01-01T08:22:16.299Z,1001.22
2023-01-01T08:23:16.231Z,1001.22
2023-01-01T08:24:16.227Z,1001.29
2023-01-01T08:25:16.203Z,1001.31
2023-01-01T08:26:16.192Z,1001.34
2023-01-01T08:27:16.222Z,1001.35
2023-01-01T08:28:16.235Z,1001.37
2023-01-01T08:29:16.170Z,1001.30
2023-01-01T08:30:16.163Z,1001.41
2023-01-01T08:31:16.168Z,1001.41
2023-01-01T08:32:16.805Z,1001.39
2023-01-01T08:33:16.212Z,1001.37
2023-01-01T08:34:16.109Z,1001.40
2023-01-01T08:35:16.125Z,1001.44
2023-01-01T08:36:16.086Z,1001.46
2023-01-01T08:37:16.076Z,1001.43
2023-01-01T08:38:16.070Z,1001.43
2023-01-01T08:39:16.091Z,1001.43
2023-01-01T08:40:16.049Z,1001.41
2023-01-01T08:41:16.040Z,1001.50
2023-01-01T08:42:16.038Z,1001.42
2023-01-01T08:43:16.023Z,1001.46
2023-01-01T08:44:15.999Z,1001.49
2023-01-01T08:45:16.024Z,1001.45
2023-01-01T08:46:16.029Z,1001.52
2023-01-01T08:47:15.963Z,1001.53
2023-01-01T08:48:15.984Z,1001.54
2023-01-01T08:49:15.945Z,1001.57
2023-01-01T08:50:15.967Z,1001.59
2023-01-01T08:51:15.965Z,1001.60
2023-01-01T08:52:15.924Z,1001.55
2023-01-01T08:53:15.914Z,1001.61
2023-01-01T08:54:15.887Z,1001.64
2023-01-01T08:55:15.875Z,1001.63
2023-01-01T08:56:15.872Z,1001.66
2023-01-01T08:57:15.896Z,1001.69
2023-01-01T08:58:15.878Z,1001.73
2023-01-01T08:59:15.891Z,1001.72
2023-01-01T09:00:15.817Z,1001.76
2023-01-01T09:01:15.876Z,1001.76
2023-01-01T09:02:15.937Z,1001.75
2023-01-01T09:03:15.877Z,1001.71
2023-01-01T09:04:16.056Z,1001.69
2023-01-01T09:05:15.783Z,1001.66
2023-01-01T09:06:15.751Z,1001.73
2023-01-01T09:13:06.121Z,1001.63
2023-01-01T09:14:06.051Z,1001.63
2023-01-01T09:15:06.122Z,1001.63
2023-01-01T09:16:06.092Z,1001.65
2023-01-01T09:17:06.052Z,1001.62
2023-01-01T09:18:06.056Z,1001.61
2023-01-01T09:19:06.009Z,1001.58
2023-01-01T09:20:06.001Z,1001.63
2023-01-01T09:21:06.003Z,1001.63
2023-01-01T09:22:05.978Z,1001.67
2023-01-01T09:23:06.302Z,1001.69
2023-01-01T09:24:05.950Z,1001.75
2023-01-01T09:25:05.955Z,1001.75
2023-01-01T09:26:05.926Z,1001.75
2023-01-01T09:27:05.945Z,1001.74
2023-01-01T09:28:05.904Z,1001.73
2023-01-01T09:29:05.929Z,1001.71
2023-01-01T09:30:05.879Z,1001.69
2023-01-01T09:31:05.915Z,1001.76
2023-01-01T09:32:05.894Z,1001.80
2023-01-01T09:33:05.843Z,1001.79
2023-01-01T09:34:05.833Z,1001.80
2023-01-01T09:35:05.842Z,1001.91
2023-01-01T09:36:05.834Z,1001.91
2023-01-01T09:37:05.803Z,1001.92
2023-01-01T09:38:05.787Z,1001.95
2023-01-01T09:39:05.783Z,1001.95
2023-01-01T09:40:05.797Z,1001.97
2023-01-01T09:41:05.752Z,1002.01
2023-01-01T09:42:05.819Z,1001.99
2023-01-01T09:43:05.729Z,1002.01
2023-01-01T09:44:05.731Z,1002.15
2023-01-01T09:45:05.766Z,1002.16
2023-01-01T09:46:05.722Z,1002.17
2023-01-01T09:47:05.786Z,1002.13
2023-01-01T09:48:05.718Z,1002.15
2023-01-01T09:49:05.671Z,1002.19
2023-01-01T09:50:05.652Z,1002.19
2023-01-01T09:51:05.678Z,1002.21
2023-01-01T09:52:05.643Z,1002.16
2023-01-01T09:53:05.628Z,1002.22
2023-01-01T09:54:05.625Z,1002.22
2023-01-01T09:55:05.599Z,1002.25
2023-01-01T09:56:05.611Z,1002.20
2023-01-01T09:57:05.603Z,1002.22
2023-01-01T09:58:05.599Z,1002.36
2023-01-01T09:59:05.561Z,1002.31
2023-01-01T10:00:05.563Z,1002.32
2023-01-01T10:01:05.646Z,1002.34
2023-01-01T10:02:05.682Z,1002.37
2023-01-01T10:03:05.551Z,1002.37
2023-01-01T10:04:05.557Z,1002.34
2023-01-01T10:05:05.493Z,1002.35
2023-01-01T10:06:05.561Z,1002.34
2023-01-01T10:07:05.471Z,1002.31
2023-01-01T10:08:05.470Z,1002.32
2023-01-01T10:09:05.493Z,1002.30
2023-01-01T10:10:05.434Z,1002.30
2023-01-01T10:11:05.431Z,1002.21
2023-01-01T10:12:05.419Z,1002.16
2023-01-01T10:13:05.428Z,1002.21
2023-01-01T10:14:05.419Z,1002.31
2023-01-01T10:15:05.381Z,1002.30
2023-01-01T10:16:05.381Z,1002.30
2023-01-01T10:17:05.474Z,1002.30
2023-01-01T10:18:05.361Z,1002.31
2023-01-01T10:19:05.364Z,1002.28
2023-01-01T10:20:05.331Z,1002.19
2023-01-01T10:21:05.312Z,1002.27
2023-01-01T10:22:05.323Z,1002.20
2023-01-01T10:23:05.298Z,1002.24
2023-01-01T10:24:05.300Z,1002.25
2023-01-01T10:25:05.291Z,1002.24
2023-01-01T10:26:05.251Z,1002.26
2023-01-01T10:27:05.274Z,1002.28
2023-01-01T10:28:05.254Z,1002.33
2023-01-01T10:29:05.234Z,1002.38
2023-01-01T10:30:05.379Z,1002.36
2023-01-01T10:31:05.200Z,1002.42
2023-01-01T10:32:05.271Z,1002.44
2023-01-01T10:33:05.178Z,1002.41
2023-01-01T10:34:05.203Z,1002.37
2023-01-01T10:35:05.167Z,1002.36
2023-01-01T10:36:05.138Z,1002.36
2023-01-01T10:37:05.152Z,1002.27
2023-01-01T10:38:05.118Z,1002.26
2023-01-01T10:39:05.122Z,1002.31
2023-01-01T10:40:05.139Z,1002.29
2023-01-01T10:41:05.111Z,1002.29
2023-01-01T10:42:05.103Z,1002.32
2023-01-01T10:43:05.100Z,1002.26
2023-01-01T10:44:05.064Z,1002.28
2023-01-01T10:45:05.053Z,1002.34
2023-01-01T10:46:05.131Z,1002.31
2023-01-01T10:47:05.024Z,1002.26
2023-01-01T10:48:05.006Z,1002.27
2023-01-01T10:49:05.023Z,1002.25
2023-01-01T10:50:04.995Z,1002.21
2023-01-01T10:51:05.002Z,1002.16
2023-01-01T10:52:05.012Z,1002.17
2023-01-01T10:53:04.952Z,1002.14
2023-01-01T10:54:04.944Z,1002.11
2023-01-01T10:55:04.936Z,1002.12
2023-01-01T10:56:04.921Z,1002.07
2023-01-01T10:57:04.934Z,1002.08
2023-01-01T10:58:04.912Z,1002.15
2023-01-01T10:59:04.889Z,1002.11
2023-01-01T11:00:04.870Z,1002.16
2023-01-01T11:01:05.034Z,1002.10
2023-01-01T11:02:05.643Z,1002.03
2023-01-01T11:03:04.858Z,1002.09
2023-01-01T11:04:04.864Z,1002.05
2023-01-01T11:05:10.372Z,1002.07
2023-01-01T11:06:05.821Z,1002.07
2023-01-01T11:07:04.828Z,1002.09
2023-01-01T11:08:04.786Z,1002.06
2023-01-01T11:09:04.808Z,1002.04
2023-01-01T11:10:05.224Z,1002.06
2023-01-01T11:11:04.775Z,1002.07
2023-01-01T11:12:11.772Z,1002.06
2023-01-01T11:13:06.539Z,1002.11
2023-01-01T11:14:04.760Z,1002.13
2023-01-01T11:15:04.745Z,1002.15
2023-01-01T11:16:04.703Z,1002.18
2023-01-01T11:17:04.742Z,1002.12
2023-01-01T11:18:04.714Z,1002.21
2023-01-01T11:19:04.670Z,1002.21
2023-01-01T11:20:04.663Z,1002.17
2023-01-01T11:21:04.698Z,1002.12
2023-01-01T11:22:04.649Z,1002.14
2023-01-01T11:23:04.661Z,1002.09
2023-01-01T11:24:04.634Z,1002.13
2023-01-01T11:25:04.628Z,1002.18
2023-01-01T11:26:04.606Z,1002.21
2023-01-01T11:27:04.580Z,1002.19
2023-01-01T11:28:04.617Z,1002.27
2023-01-01T11:29:04.559Z,1002.28
2023-01-01T11:30:04.545Z,1002.33
2023-01-01T11:31:04.656Z,1002.28
2023-01-01T11:32:04.539Z,1002.27
2023-01-01T11:33:04.518Z,1002.23
2023-01-01T11:34:04.534Z,1002.24
2023-01-01T11:35:04.521Z,1002.25
2023-01-01T11:36:04.504Z,1002.25
2023-01-01T11:37:04.474Z,1002.25
2023-01-01T11:38:04.459Z,1002.23
2023-01-01T11:39:04.577Z,1002.20
2023-01-01T11:40:05.353Z,1002.26
2023-01-01T11:41:04.462Z,1002.27
2023-01-01T11:42:04.413Z,1002.30
2023-01-01T11:43:04.424Z,1002.27
2023-01-01T11:44:04.389Z,1002.24
2023-01-01T11:45:04.411Z,1002.25
2023-01-01T11:46:04.449Z,1002.18
2023-01-01T11:47:04.366Z,1002.18
2023-01-01T11:48:04.348Z,1002.22
2023-01-01T11:49:04.341Z,1002.18
2023-01-01T11:50:04.344Z,1002.17
2023-01-01T11:51:04.327Z,1002.17
2023-01-01T11:52:04.328Z,1002.20
2023-01-01T11:53:04.292Z,1002.18
2023-01-01T11:54:04.292Z,1002.18
2023-01-01T11:55:04.300Z,1002.20
2023-01-01T11:56:04.277Z,1002.28
2023-01-01T11:57:04.253Z,1002.25
2023-01-01T11:58:04.274Z,1002.24
2023-01-01T11:59:04.234Z,1002.33
2023-01-01T12:00:04.233Z,1002.32
2023-01-01T12:01:04.283Z,1002.32
2023-01-01T12:02:04.215Z,1002.29
2023-01-01T12:03:04.207Z,1002.21
2023-01-01T12:04:04.243Z,1002.16
2023-01-01T12:05:04.176Z,1002.13
2023-01-01T12:06:04.150Z,1002.15
2023-01-01T12:07:04.142Z,1002.14
2023-01-01T12:08:04.145Z,1002.11
2023-01-01T12:09:04.130Z,1002.10
2023-01-01T12:10:04.133Z,1002.14
2023-01-01T12:11:04.117Z,1002.17
2023-01-01T12:12:04.099Z,1002.11
2023-01-01T12:13:04.078Z,1002.06
2023-01-01T12:14:04.219Z,1002.08
2023-01-01T12:15:04.050Z,1002.04
2023-01-01T12:16:04.116Z,1002.02
2023-01-01T12:17:04.018Z,1002.01
2023-01-01T12:18:04.034Z,1002.02
2023-01-01T12:19:04.001Z,1002.03
2023-01-01T12:20:04.010Z,1002.03
2023-01-01T12:21:03.993Z,1002.03
2023-01-01T12:22:04.005Z,1001.96
2023-01-01T12:23:03.965Z,1001.93
2023-01-01T12:24:04.027Z,1001.94